»·PEaware :: WAT169 KRNO-KDEN

WAT169 :: KRNO-KDEN

FLIGHT INFORMATION

Flight Status: Arrived
Operator:
Walker Air Transport
More flights by this operator :: More flights under this callsign
Pilot: Marty P. (27464)
Aircraft: BOEING 737-800
(B738)
More flights by this aircraft type
Origin: KRNO Reno/Tahoe Intl
United States
Destination: KDEN Denver Intl
United States
More flights between these airports :: More routes between these airports
Route: ZEFFR6 PESKE MVA JSICA LUDOH BUMMP SSKII1
File this flight plan on PilotEdge
Remarks: Good morning )
Altitude:
(Current/Filed)
39,000ft
Speed:
(Current/Filed)
480kts
Departed: 11-Nov-20 08:15 AM
Arrived: 11-Nov-20 09:52 AM
Distance/Time
Traveled:
696nm/1:36
Distance/Time
To Go:
Arrived

Flight Plot

Page will automatically refresh every two minutes.

Flight plan parsing failed; only flown route is shown


Map Options




Map Legend


Flown Route
Filed Route
Departure Airport
Arrival Airport
Navaid (VOR, NDB)
Fix

Horizontal Profiles

Position Reports

Time Latitude Longitude Heading Altitude Ground
Speed
11-Nov-20 07:38 39.504393 -119.774256 16 4425ft 0kts
11-Nov-20 07:39 39.504392 -119.774256 16 4425ft 0kts
11-Nov-20 07:40 39.504392 -119.774256 16 4425ft 0kts
11-Nov-20 07:41 39.504392 -119.774256 16 4425ft 0kts
11-Nov-20 07:42 39.504392 -119.774256 16 4425ft 0kts
11-Nov-20 07:43 39.504392 -119.774256 16 4425ft 0kts
11-Nov-20 07:44 39.504392 -119.774256 16 4425ft 0kts
11-Nov-20 07:45 39.504392 -119.774256 16 4425ft 0kts
11-Nov-20 07:46 39.504392 -119.774256 16 4425ft 0kts
11-Nov-20 07:47 39.504392 -119.774256 16 4425ft 0kts
11-Nov-20 07:48 39.504392 -119.774256 16 4425ft 0kts
11-Nov-20 07:49 39.504392 -119.774256 16 4425ft 0kts
11-Nov-20 07:50 39.504392 -119.774256 16 4425ft 0kts
11-Nov-20 07:51 39.504392 -119.774256 16 4425ft 0kts
11-Nov-20 07:52 39.504392 -119.774256 16 4425ft 0kts
11-Nov-20 07:53 39.504392 -119.774256 16 4425ft 0kts
11-Nov-20 07:54 39.504392 -119.774256 16 4425ft 0kts
11-Nov-20 07:55 39.504392 -119.774256 16 4425ft 0kts
11-Nov-20 07:56 39.504392 -119.774256 16 4425ft 0kts
11-Nov-20 07:57 39.504392 -119.774256 16 4425ft 0kts
11-Nov-20 07:58 39.504392 -119.774256 16 4425ft 0kts
11-Nov-20 07:59 39.504392 -119.774256 16 4425ft 0kts
11-Nov-20 08:00 39.504392 -119.774256 16 4425ft 0kts
11-Nov-20 08:01 39.504392 -119.774256 16 4425ft 0kts
11-Nov-20 08:02 39.504392 -119.774256 16 4425ft 0kts
11-Nov-20 08:03 39.504392 -119.774256 16 4425ft 0kts
11-Nov-20 08:04 39.503937 -119.774397 7 4425ft 2kts
11-Nov-20 08:05 39.503707 -119.774350 44 4425ft 2kts
11-Nov-20 08:06 39.503741 -119.772288 89 4425ft 2kts
11-Nov-20 08:07 39.503741 -119.772212 89 4425ft 0kts
11-Nov-20 08:08 39.503741 -119.772212 89 4425ft 0kts
11-Nov-20 08:09 39.506824 -119.771512 359 4425ft 20kts
11-Nov-20 08:10 39.512854 -119.771487 0 4425ft 16kts
11-Nov-20 08:11 39.513745 -119.770521 89 4425ft 0kts
11-Nov-20 08:12 39.513745 -119.770478 89 4425ft 2kts
11-Nov-20 08:13 39.512530 -119.769236 180 4425ft 16kts
11-Nov-20 08:14 39.477418 -119.768843 174 5065ft 188kts
11-Nov-20 08:15 39.417579 -119.769749 181 7225ft 255kts
11-Nov-20 08:16 39.345149 -119.766818 170 10937ft 280kts
11-Nov-20 08:17 39.275105 -119.705354 132 13064ft 358kts
11-Nov-20 08:18 39.203154 -119.601253 132 15438ft 406kts
11-Nov-20 08:19 39.123879 -119.492779 137 18223ft 426kts
11-Nov-20 08:20 39.036420 -119.384545 137 20710ft 444kts
11-Nov-20 08:21 38.945853 -119.272247 137 22916ft 460kts
11-Nov-20 08:22 38.852145 -119.156408 138 24829ft 475kts
11-Nov-20 08:23 38.771902 -119.018148 114 26423ft 495kts
11-Nov-20 08:24 38.731728 -118.846969 102 27840ft 509kts
11-Nov-20 08:25 38.695870 -118.668207 102 29118ft 525kts
11-Nov-20 08:26 38.658882 -118.484869 102 30298ft 539kts
11-Nov-20 08:27 38.620581 -118.296412 103 31487ft 549kts
11-Nov-20 08:28 38.581964 -118.107073 102 32771ft 552kts
11-Nov-20 08:29 38.559358 -117.912730 91 34019ft 550kts
11-Nov-20 08:30 38.547381 -117.718143 91 35466ft 544kts
11-Nov-20 08:31 38.535905 -117.527133 91 36779ft 538kts
11-Nov-20 08:32 38.524488 -117.339902 92 37874ft 533kts
11-Nov-20 08:33 38.517151 -117.150176 89 38692ft 529kts
11-Nov-20 08:34 38.512785 -116.962132 89 39156ft 534kts
11-Nov-20 08:35 38.507936 -116.770642 90 39127ft 545kts
11-Nov-20 08:36 38.502629 -116.575453 90 39127ft 552kts
11-Nov-20 08:37 38.496962 -116.378867 90 39127ft 556kts
11-Nov-20 08:38 38.491039 -116.181444 91 39128ft 557kts
11-Nov-20 08:39 38.484712 -115.983703 91 39128ft 557kts
11-Nov-20 08:40 38.478016 -115.785804 91 39111ft 558kts
11-Nov-20 08:41 38.470950 -115.587236 91 39091ft 558kts
11-Nov-20 08:42 38.463562 -115.389118 91 39091ft 559kts
11-Nov-20 08:43 38.455961 -115.191597 92 39091ft 558kts
11-Nov-20 08:44 38.447962 -114.993792 92 39091ft 557kts
11-Nov-20 08:45 38.439573 -114.795641 92 39091ft 557kts
11-Nov-20 08:46 38.430880 -114.598301 92 39091ft 558kts
11-Nov-20 08:47 38.421836 -114.400623 92 39091ft 558kts
11-Nov-20 08:48 38.412542 -114.202871 93 39090ft 558kts
11-Nov-20 08:49 38.402888 -114.005502 93 39083ft 558kts
11-Nov-20 08:50 38.392819 -113.807395 93 39082ft 559kts
11-Nov-20 08:51 38.382451 -113.610128 93 39082ft 560kts
11-Nov-20 08:52 38.371725 -113.412151 93 39083ft 561kts
11-Nov-20 08:53 38.360680 -113.213459 94 39081ft 561kts
11-Nov-20 08:54 38.349277 -113.014684 94 39083ft 561kts
11-Nov-20 08:56 38.337505 -112.816248 95 39114ft 562kts
11-Nov-20 08:57 38.325410 -112.618191 95 39121ft 563kts
11-Nov-20 08:58 38.312884 -112.418740 95 39125ft 565kts
11-Nov-20 08:59 38.300123 -112.219572 96 39128ft 565kts
11-Nov-20 09:00 38.286995 -112.020517 96 39132ft 565kts
11-Nov-20 09:01 38.273490 -111.821625 96 39134ft 566kts
11-Nov-20 09:02 38.259580 -111.621805 96 39135ft 567kts
11-Nov-20 09:03 38.245255 -111.421345 96 39136ft 568kts
11-Nov-20 09:04 38.230760 -111.221920 97 39137ft 567kts
11-Nov-20 09:05 38.215862 -111.022184 97 39140ft 567kts
11-Nov-20 09:06 38.200623 -110.823126 97 39146ft 566kts
11-Nov-20 09:07 38.184996 -110.623601 97 39147ft 566kts
11-Nov-20 09:08 38.169060 -110.424514 98 39146ft 567kts
11-Nov-20 09:09 38.152875 -110.225537 98 39146ft 566kts
11-Nov-20 09:10 38.137518 -110.026547 96 39168ft 566kts
11-Nov-20 09:11 38.129295 -109.827159 94 39200ft 567kts
11-Nov-20 09:11 38.124144 -109.660008 94 39204ft 568kts
11-Nov-20 09:13 38.117129 -109.425731 94 39209ft 569kts
11-Nov-20 09:13 38.112024 -109.258434 94 39228ft 569kts
11-Nov-20 09:15 38.104490 -109.024715 94 39237ft 569kts
11-Nov-20 09:16 38.142387 -108.831894 61 39216ft 570kts
11-Nov-20 09:16 38.201374 -108.681554 61 39173ft 572kts
11-Nov-20 09:17 38.272258 -108.500448 61 39135ft 575kts
11-Nov-20 09:18 38.343375 -108.317756 62 39164ft 575kts
11-Nov-20 09:19 38.414307 -108.134803 62 39173ft 576kts
11-Nov-20 09:20 38.484340 -107.951371 63 39173ft 577kts
11-Nov-20 09:21 38.553644 -107.766020 62 39173ft 577kts
11-Nov-20 09:22 38.623123 -107.580866 62 39174ft 578kts
11-Nov-20 09:23 38.692588 -107.395644 62 39177ft 578kts
11-Nov-20 09:24 38.761144 -107.214228 62 38389ft 552kts
11-Nov-20 09:25 38.826938 -107.039514 62 36409ft 546kts
11-Nov-20 09:26 38.893085 -106.862816 62 34397ft 551kts
11-Nov-20 09:27 38.959382 -106.684634 62 32392ft 556kts
11-Nov-20 09:28 39.025539 -106.504230 62 30229ft 564kts
11-Nov-20 09:29 39.091930 -106.320998 62 27713ft 563kts
11-Nov-20 09:30 39.158511 -106.138002 62 25218ft 564kts
11-Nov-20 09:31 39.222969 -105.958707 62 22707ft 539kts
11-Nov-20 09:32 39.284124 -105.788543 62 20286ft 510kts
11-Nov-20 09:33 39.342961 -105.624723 61 20038ft 506kts
11-Nov-20 09:34 39.401303 -105.464036 61 17811ft 462kts
11-Nov-20 09:35 39.462170 -105.337723 50 16904ft 371kts
11-Nov-20 09:36 39.520481 -105.230532 51 15417ft 360kts
11-Nov-20 09:37 39.577051 -105.125634 51 14750ft 348kts
11-Nov-20 09:38 39.630865 -105.025746 52 13738ft 327kts
11-Nov-20 09:39 39.681743 -104.931007 52 13003ft 313kts
11-Nov-20 09:40 39.741260 -104.850482 17 12869ft 307kts
11-Nov-20 09:41 39.822598 -104.839962 355 11347ft 284kts
11-Nov-20 09:42 39.895008 -104.839313 356 11017ft 247kts
11-Nov-20 09:43 39.964224 -104.837604 358 9983ft 245kts
11-Nov-20 09:44 40.028092 -104.832404 37 7998ft 222kts
11-Nov-20 09:45 40.038859 -104.758880 88 7332ft 215kts
11-Nov-20 09:46 40.033629 -104.688254 137 6995ft 193kts
11-Nov-20 09:47 39.983501 -104.685771 180 7008ft 154kts
11-Nov-20 09:48 39.940822 -104.686332 178 6332ft 148kts
11-Nov-20 09:49 39.899166 -104.686803 177 5508ft 148kts
11-Nov-20 09:50 39.875182 -104.687074 179 5444ft 47kts
11-Nov-20 09:51 39.864497 -104.687051 143 5444ft 14kts
11-Nov-20 09:52 39.864163 -104.678989 90 5444ft 23kts
11-Nov-20 09:53 39.863563 -104.677844 179 5444ft 0kts
11-Nov-20 09:54 39.863563 -104.677844 179 5444ft 0kts

Navigation Log

Ident Type
Flight plan parsing failed, navigation log unavailable